Time;durP1;ratioP1;P1;durP2;ratioP2;P2;SDS_P1;SDS_P2;PMS_P1;PMS_P2;Temp;Humidity;BMP_temperature;BMP_pressure;BME280_temperature;BME280_humidity;BME280_pressure;Samples;Min_cycle;Max_cycle;Signal;HPM_P1;HPM_P2
2022/11/02 00:02:07;;;;;;;18.50;8.10;;;;;;;13.55;59.92;100253.31;4467390;31;23308;-92
2022/11/02 00:04:33;;;;;;;22.90;9.27;;;;;;;13.58;59.93;100250.59;4478644;31;34391;-92
2022/11/02 00:06:58;;;;;;;19.30;8.55;;;;;;;13.60;59.92;100254.00;4478100;31;32733;-92
2022/11/02 00:09:24;;;;;;;19.00;9.20;;;;;;;13.42;59.92;100258.13;4479010;31;23146;-94
2022/11/02 00:11:49;;;;;;;20.55;9.45;;;;;;;13.34;59.92;100262.78;4479598;31;22089;-94
2022/11/02 00:14:14;;;;;;;18.17;8.90;;;;;;;13.30;59.91;100260.31;4476987;31;25618;-94
2022/11/02 00:16:40;;;;;;;18.67;8.98;;;;;;;13.40;59.91;100262.56;4484122;31;24225;-95
2022/11/02 00:19:05;;;;;;;17.83;8.52;;;;;;;13.57;59.92;100258.50;4479688;31;20109;-94
2022/11/02 00:21:31;;;;;;;22.83;9.43;;;;;;;13.47;59.91;100264.03;4480029;31;20147;-95
2022/11/02 00:23:56;;;;;;;21.33;9.18;;;;;;;13.36;59.91;100260.09;4476685;32;28268;-94
2022/11/02 00:26:21;;;;;;;17.83;9.50;;;;;;;13.30;59.91;100262.94;4480479;31;27913;-93
2022/11/02 00:28:47;;;;;;;15.98;7.90;;;;;;;13.45;59.92;100254.53;4476090;32;20196;-93
2022/11/02 00:31:12;;;;;;;20.85;9.77;;;;;;;13.65;59.94;100259.91;4466008;31;20483;-92
2022/11/02 00:33:37;;;;;;;20.20;10.65;;;;;;;13.45;59.92;100263.22;4471836;32;24392;-93
2022/11/02 00:36:03;;;;;;;22.45;9.07;;;;;;;13.39;59.91;100262.59;4486912;31;23990;-93
2022/11/02 00:38:30;;;;;;;22.45;9.82;;;;;;;13.47;59.92;100266.66;4476403;32;20108;-92
2022/11/02 00:40:56;;;;;;;21.65;9.18;;;;;;;13.57;59.92;100275.03;4489577;32;20180;-93
2022/11/02 00:43:21;;;;;;;19.58;8.88;;;;;;;13.36;59.92;100273.19;4462849;32;20100;-92
2022/11/02 00:46:06;;;;;;;20.98;9.85;;;;;;;13.32;59.91;100259.34;4477177;32;20112;-93
2022/11/02 00:48:31;;;;;;;20.73;9.75;;;;;;;13.44;59.92;100253.69;4482048;31;20100;-94
2022/11/02 00:50:56;;;;;;;22.35;9.55;;;;;;;13.24;59.91;100253.53;4477077;32;22049;-94
2022/11/02 00:53:22;;;;;;;20.85;9.15;;;;;;;13.33;59.91;100245.38;4490130;32;20413;-94
2022/11/02 00:55:47;;;;;;;25.45;9.63;;;;;;;13.27;59.92;100245.59;4465340;32;20468;-96
2022/11/02 00:58:13;;;;;;;19.75;8.32;;;;;;;13.31;59.91;100249.81;4464268;31;20465;-95
2022/11/02 01:00:38;;;;;;;19.65;9.18;;;;;;;13.34;59.92;100251.47;4464492;32;20163;-95
2022/11/02 01:03:04;;;;;;;21.80;9.18;;;;;;;13.30;59.91;100258.56;4471640;32;26910;-94
2022/11/02 01:05:29;;;;;;;20.05;8.88;;;;;;;13.17;59.90;100262.47;4474332;32;24191;-95
2022/11/02 01:07:55;;;;;;;16.50;8.40;;;;;;;13.27;59.92;100260.44;4478684;32;20173;-95
2022/11/02 01:10:21;;;;;;;18.65;8.98;;;;;;;13.16;59.90;100259.00;4475093;32;20707;-96
2022/11/02 01:12:46;;;;;;;21.52;8.43;;;;;;;13.26;59.90;100256.12;4461837;32;20093;-95
2022/11/02 01:15:12;;;;;;;18.23;9.65;;;;;;;13.15;59.90;100256.44;4474785;32;20128;-95
2022/11/02 01:17:37;;;;;;;20.85;9.50;;;;;;;13.30;59.91;100255.09;4460804;31;30163;-93
2022/11/02 01:20:03;;;;;;;19.70;9.15;;;;;;;13.12;59.90;100256.53;4474657;32;20128;-95
2022/11/02 01:22:29;;;;;;;18.33;9.40;;;;;;;13.10;59.89;100254.00;4462068;32;20139;-94
2022/11/02 01:24:54;;;;;;;23.85;9.23;;;;;;;13.14;59.90;100245.13;4474751;32;20104;-95
2022/11/02 01:27:20;;;;;;;18.83;8.95;;;;;;;13.14;59.90;100239.06;4474198;32;26845;-95
2022/11/02 01:29:45;;;;;;;24.75;10.77;;;;;;;13.19;59.90;100239.78;4474935;32;20136;-96
2022/11/02 01:32:10;;;;;;;19.23;9.95;;;;;;;13.17;59.90;100233.72;4461791;32;20161;-95
2022/11/02 01:34:36;;;;;;;25.08;10.55;;;;;;;13.15;59.90;100231.16;4474534;32;20422;-95
2022/11/02 01:37:01;;;;;;;22.83;9.77;;;;;;;13.17;59.90;100244.16;4461271;32;24900;-93
2022/11/02 01:39:26;;;;;;;22.62;10.50;;;;;;;13.27;59.90;100231.69;4473382;32;22373;-94
2022/11/02 01:41:52;;;;;;;28.80;10.48;;;;;;;13.30;59.91;100235.03;4460693;32;32369;-95
2022/11/02 01:44:34;;;;;;;19.23;9.70;;;;;;;13.35;59.91;100232.25;4461620;32;20111;-95
2022/11/02 01:47:10;;;;;;;22.60;11.15;;;;;;;13.15;59.90;100248.59;4461875;32;20117;-94
2022/11/02 01:49:37;;;;;;;21.77;9.25;;;;;;;13.21;59.91;100248.41;4461606;32;20115;-94
2022/11/02 01:52:07;;;;;;;23.73;9.65;;;;;;;13.26;59.91;100243.03;4461406;32;20099;-94
2022/11/02 01:54:36;;;;;;;21.98;10.32;;;;;;;13.59;59.93;100243.59;4461547;32;20122;-93
2022/11/02 01:57:08;;;;;;;21.70;9.05;;;;;;;13.63;59.92;100232.94;4474484;32;20068;-93
2022/11/02 01:59:38;;;;;;;24.05;9.43;;;;;;;13.51;59.93;100233.41;4461399;32;20105;-94
2022/11/02 02:02:04;;;;;;;23.77;11.00;;;;;;;13.41;59.91;100232.88;4461266;32;20084;-93
2022/11/02 02:04:29;;;;;;;20.75;10.45;;;;;;;13.64;59.92;100229.44;4461418;32;20123;-95
2022/11/02 02:06:55;;;;;;;21.35;10.85;;;;;;;13.58;59.93;100232.28;4473789;32;33314;-94
2022/11/02 02:09:20;;;;;;;20.17;10.30;;;;;;;13.60;59.92;100233.06;4460874;32;24597;-94
2022/11/02 02:11:45;;;;;;;22.70;9.98;;;;;;;13.67;59.93;100225.84;4460843;32;27802;-94
2022/11/02 02:14:15;;;;;;;21.45;9.95;;;;;;;13.43;59.92;100228.44;4473976;32;32351;-94
2022/11/02 02:16:52;;;;;;;23.70;10.75;;;;;;;13.60;59.92;100221.75;4486293;32;20108;-95
2022/11/02 02:19:39;;;;;;;20.42;10.43;;;;;;;13.68;59.93;100217.94;4487467;32;20135;-92
2022/11/02 02:22:12;;;;;;;23.75;9.93;;;;;;;13.39;59.91;100226.00;4486876;32;20048;-92
2022/11/02 02:25:08;;;;;;;21.23;9.57;;;;;;;13.56;59.92;100228.88;4486432;32;20096;-92
2022/11/02 02:27:56;;;;;;;22.70;12.52;;;;;;;13.45;59.92;100228.38;4487133;32;21174;-92
2022/11/02 02:30:22;;;;;;;20.45;8.95;;;;;;;13.40;59.91;100230.31;4486897;32;20521;-93
2022/11/02 02:32:56;;;;;;;21.02;9.50;;;;;;;13.34;59.92;100238.38;4475485;32;20105;-96
2022/11/02 02:35:27;;;;;;;19.42;9.10;;;;;;;13.43;59.92;100227.59;4461603;32;20087;-95
2022/11/02 02:38:03;;;;;;;21.87;9.02;;;;;;;13.59;59.93;100244.44;4461910;32;20064;-94
2022/11/02 02:40:37;;;;;;;19.10;9.82;;;;;;;13.82;59.94;100243.59;4487303;32;20104;-94
2022/11/02 02:43:05;;;;;;;19.92;9.55;;;;;;;13.90;59.94;100246.75;4461516;32;20167;-94
2022/11/02 02:45:38;;;;;;;21.50;8.73;;;;;;;13.58;59.93;100258.44;4461453;32;20124;-94
2022/11/02 02:48:09;;;;;;;20.60;9.05;;;;;;;13.56;59.92;100257.63;4486797;32;20131;-93
2022/11/02 02:50:39;;;;;;;20.10;9.52;;;;;;;13.31;59.91;100260.28;4486648;32;20121;-94
2022/11/02 02:53:05;;;;;;;19.37;8.73;;;;;;;13.26;59.92;100264.81;4460881;32;20253;-93
2022/11/02 02:55:33;;;;;;;21.33;9.07;;;;;;;13.21;59.91;100278.03;4461407;32;20128;-95
2022/11/02 02:57:59;;;;;;;16.80;8.35;;;;;;;13.24;59.90;100277.06;4461889;32;20104;-95
2022/11/02 03:00:25;;;;;;;21.15;9.45;;;;;;;13.24;59.90;100282.28;4461477;32;20146;-95
2022/11/02 03:03:02;;;;;;;21.80;9.75;;;;;;;13.17;59.90;100278.16;4474128;32;20449;-94
2022/11/02 03:05:34;;;;;;;20.67;9.38;;;;;;;13.17;59.90;100286.00;4475262;32;20152;-94
2022/11/02 03:08:04;;;;;;;19.50;9.63;;;;;;;13.23;59.90;100284.94;4461532;32;20116;-94
2022/11/02 03:10:36;;;;;;;24.23;9.75;;;;;;;13.19;59.90;100286.81;4462383;32;20131;-95
2022/11/02 03:13:09;;;;;;;17.55;9.00;;;;;;;13.31;59.91;100282.94;4462184;32;20092;-95
2022/11/02 03:15:39;;;;;;;19.35;10.13;;;;;;;13.22;59.90;100297.16;4488183;32;20751;-95
2022/11/02 03:18:13;;;;;;;;;;;;;;;13.39;59.91;100289.59;4475142;31;20480;-96
2022/11/02 03:20:45;;;;;;;25.65;9.18;;;;;;;13.25;59.90;100284.03;4487678;32;20045;-96
2022/11/02 03:23:16;;;;;;;18.92;8.80;;;;;;;13.16;59.90;100292.97;4487774;32;20075;-95
2022/11/02 03:26:28;;;;;;;23.38;9.00;;;;;;;13.26;59.90;100300.56;4487521;32;20491;-96
2022/11/02 03:29:07;;;;;;;23.83;10.05;;;;;;;13.18;59.90;100304.28;4474838;32;20104;-95
2022/11/02 03:31:38;;;;;;;20.80;9.68;;;;;;;13.08;59.90;100308.06;4461856;32;20072;-96
2022/11/02 03:34:06;;;;;;;21.10;10.23;;;;;;;13.20;59.91;100306.81;4462070;32;20176;-95
2022/11/02 03:36:34;;;;;;;25.42;11.90;;;;;;;13.33;59.91;100302.91;4487574;32;20099;-94
2022/11/02 03:39:05;;;;;;;24.92;12.02;;;;;;;13.52;59.93;100297.87;4461437;32;20465;-94
2022/11/02 03:41:30;;;;;;;23.92;12.55;;;;;;;13.41;59.91;100294.78;4461263;32;20403;-94
2022/11/02 03:44:00;;;;;;;24.42;11.73;;;;;;;13.57;59.92;100292.50;4460568;32;20080;-92
2022/11/02 03:46:25;;;;;;;24.95;11.88;;;;;;;13.39;59.92;100287.00;4461081;32;20080;-95
2022/11/02 03:48:51;;;;;;;27.52;12.25;;;;;;;13.44;59.92;100290.28;4460915;32;20148;-96
2022/11/02 03:51:18;;;;;;;39.15;13.93;;;;;;;13.46;59.92;100290.25;4460987;32;20149;-94
2022/11/02 03:54:03;;;;;;;28.62;11.88;;;;;;;13.47;59.92;100284.94;4461441;32;20104;-96
2022/11/02 03:56:32;;;;;;;27.58;11.95;;;;;;;13.33;59.91;100291.59;4462788;32;20096;-95
2022/11/02 03:58:57;;;;;;;31.45;12.55;;;;;;;13.34;59.90;100304.59;4465386;32;20091;-95
2022/11/02 04:01:23;;;;;;;24.73;12.55;;;;;;;13.40;59.91;100301.78;4462626;32;20112;-95
2022/11/02 04:03:49;;;;;;;25.65;11.93;;;;;;;13.45;59.92;100305.06;4463197;32;20088;-95
2022/11/02 04:06:15;;;;;;;24.52;12.45;;;;;;;13.57;59.92;100309.03;4462342;32;20085;-95
2022/11/02 04:08:45;;;;;;;26.00;12.90;;;;;;;13.68;59.93;100306.03;4461782;32;20096;-95
2022/11/02 04:16:42;;;;;;;28.42;12.45;;;;;;;13.67;59.93;100318.25;4480766;32;20075;-95
2022/11/02 04:19:28;;;;;;;27.17;12.95;;;;;;;13.76;59.93;100320.56;4475227;31;20101;-95
2022/11/02 04:27:22;;;;;;;28.17;13.43;;;;;;;13.70;59.93;100322.53;4475111;32;20115;-94
2022/11/02 04:29:48;;;;;;;25.65;12.18;;;;;;;13.90;59.94;100329.66;4459571;32;20160;-94
2022/11/02 04:32:13;;;;;;;26.77;13.15;;;;;;;13.86;59.93;100328.06;4459750;32;21153;-92
2022/11/02 04:34:38;;;;;;;27.95;13.32;;;;;;;13.92;59.94;100325.22;4459479;32;20152;-93
2022/11/02 04:38:39;;;;;;;26.60;12.73;;;;;;;14.00;59.94;100336.28;4459019;32;28368;-93
2022/11/02 04:39:49;;;;;;;24.25;12.32;;;;;;;14.02;59.94;100327.47;4475969;32;20176;-93
2022/11/02 04:42:15;;;;;;;29.15;12.82;;;;;;;13.96;59.95;100327.69;4461143;32;20120;-93
2022/11/02 04:44:40;;;;;;;29.10;13.23;;;;;;;13.91;59.94;100329.59;4474523;32;20112;-92
2022/11/02 04:47:05;;;;;;;25.17;13.50;;;;;;;14.04;59.95;100332.63;4461864;32;20112;-93
2022/11/02 04:49:31;;;;;;;25.70;12.73;;;;;;;14.23;59.96;100327.56;4461290;32;20249;-93
2022/11/02 04:51:56;;;;;;;24.92;13.18;;;;;;;14.02;59.94;100326.59;4474500;32;22719;-95
2022/11/02 04:54:22;;;;;;;23.02;11.85;;;;;;;13.90;59.94;100327.91;4461883;32;20169;-95
2022/11/02 04:56:47;;;;;;;22.15;12.23;;;;;;;13.92;59.94;100338.31;4461905;32;20092;-94
2022/11/02 04:59:12;;;;;;;32.60;13.38;;;;;;;14.05;59.95;100332.56;4474857;32;20161;-94
2022/11/02 05:01:38;;;;;;;25.42;12.32;;;;;;;13.80;59.94;100337.84;4460863;32;20140;-94
2022/11/02 05:04:04;;;;;;;27.67;12.82;;;;;;;14.11;59.96;100332.34;4474915;31;20089;-96
2022/11/02 05:06:29;;;;;;;25.17;12.52;;;;;;;14.14;59.95;100336.59;4461596;32;20076;-92
2022/11/02 05:08:54;;;;;;;28.50;11.88;;;;;;;13.91;59.94;100333.97;4473401;32;24932;-94
2022/11/02 05:11:20;;;;;;;23.60;11.80;;;;;;;13.88;59.94;100331.47;4461259;32;20113;-94
2022/11/02 05:13:45;;;;;;;24.90;12.35;;;;;;;13.95;59.94;100336.44;4461615;32;20112;-93
2022/11/02 05:16:13;;;;;;;24.35;12.30;;;;;;;13.77;59.94;100345.81;4461820;32;20096;-94
2022/11/02 05:18:38;;;;;;;25.08;12.13;;;;;;;14.09;59.95;100338.56;4466381;32;20127;-96
2022/11/02 05:21:04;;;;;;;25.35;12.52;;;;;;;14.00;59.94;100344.12;4463601;32;20124;-94
2022/11/02 05:23:29;;;;;;;30.77;12.20;;;;;;;14.06;59.95;100341.28;4463563;32;20106;-94
2022/11/02 05:25:56;;;;;;;29.37;13.02;;;;;;;14.13;59.95;100337.53;4461719;32;20128;-93
2022/11/02 05:28:22;;;;;;;24.45;12.05;;;;;;;14.13;59.95;100342.75;4461987;32;20665;-94
2022/11/02 05:30:47;;;;;;;26.98;12.80;;;;;;;14.05;59.95;100345.66;4460917;32;20118;-93
2022/11/02 05:33:13;;;;;;;28.67;12.00;;;;;;;14.16;59.95;100347.88;4461180;32;20088;-92
2022/11/02 05:35:38;;;;;;;27.15;12.88;;;;;;;14.05;59.95;100339.59;4460343;32;28935;-94
2022/11/02 05:38:04;;;;;;;27.83;11.98;;;;;;;14.20;59.96;100338.16;4461387;32;20406;-94
2022/11/02 05:40:29;;;;;;;28.23;14.10;;;;;;;14.33;59.96;100344.63;4460764;32;20108;-93
2022/11/02 05:43:01;;;;;;;27.37;11.88;;;;;;;14.35;59.97;100332.34;4460700;32;20654;-93
2022/11/02 05:45:26;;;;;;;24.80;12.57;;;;;;;14.37;59.96;100331.34;4460684;32;20461;-93
2022/11/02 05:47:52;;;;;;;28.15;13.27;;;;;;;14.19;59.96;100342.53;4473151;32;23986;-93
2022/11/02 05:50:17;;;;;;;29.12;14.98;;;;;;;14.31;59.96;100328.13;4473396;32;20165;-93
2022/11/02 05:52:43;;;;;;;23.75;11.57;;;;;;;14.25;59.96;100331.00;4460136;32;20425;-93
2022/11/02 05:55:08;;;;;;;24.52;12.55;;;;;;;14.42;59.97;100332.03;4460623;32;20484;-94
2022/11/02 05:57:33;;;;;;;27.58;12.82;;;;;;;14.37;59.96;100325.28;4474494;32;20164;-95
2022/11/02 05:59:59;;;;;;;25.17;12.70;;;;;;;14.17;59.95;100331.25;4460849;32;20143;-96
2022/11/02 06:02:25;;;;;;;27.25;14.02;;;;;;;14.31;59.96;100328.13;4474607;32;20213;-93
2022/11/02 06:04:50;;;;;;;30.10;13.05;;;;;;;14.44;59.97;100329.41;4460658;32;20847;-95
2022/11/02 06:07:15;;;;;;;28.55;13.13;;;;;;;14.49;59.97;100324.84;4460899;32;20104;-95
2022/11/02 06:09:41;;;;;;;35.28;13.27;;;;;;;14.31;59.96;100321.13;4460450;32;20147;-94
2022/11/02 06:12:06;;;;;;;23.48;11.98;;;;;;;14.46;59.97;100324.13;4461090;32;20089;-94
2022/11/02 06:14:32;;;;;;;23.27;11.12;;;;;;;14.69;59.98;100327.53;4460339;32;27432;-94
2022/11/02 06:16:58;;;;;;;25.83;11.38;;;;;;;14.51;59.97;100325.63;4487034;32;20136;-95
2022/11/02 06:19:23;;;;;;;26.62;12.40;;;;;;;14.36;59.97;100334.03;4473656;32;20156;-94
2022/11/02 06:21:48;;;;;;;26.50;12.37;;;;;;;14.25;59.96;100351.94;4460740;32;20131;-95
2022/11/02 06:24:14;;;;;;;26.12;12.30;;;;;;;14.20;59.96;100356.50;4461218;32;20192;-94
2022/11/02 06:26:39;;;;;;;26.33;10.63;;;;;;;14.22;59.96;100355.53;4460597;32;20181;-95
2022/11/02 06:29:05;;;;;;;30.67;10.75;;;;;;;14.18;59.96;100366.16;4460902;32;20156;-95
2022/11/02 06:31:30;;;;;;;29.20;11.90;;;;;;;14.29;59.96;100364.84;4461215;32;20080;-95
2022/11/02 06:33:56;;;;;;;25.98;12.35;;;;;;;14.31;59.96;100363.03;4460458;32;24780;-94
2022/11/02 06:36:21;;;;;;;26.37;11.98;;;;;;;14.46;59.97;100371.25;4460775;32;20147;-94
2022/11/02 06:38:46;;;;;;;27.42;12.45;;;;;;;14.65;59.99;100367.84;4461019;32;20116;-94
2022/11/02 06:41:12;;;;;;;27.23;13.52;;;;;;;14.81;59.99;100373.34;4461456;32;20112;-95
2022/11/02 06:43:37;;;;;;;27.55;12.65;;;;;;;14.72;59.99;100373.72;4461663;32;20088;-95
2022/11/02 06:46:03;;;;;;;27.17;13.05;;;;;;;14.69;59.98;100389.56;4464689;32;20125;-95
2022/11/02 06:48:28;;;;;;;24.95;11.88;;;;;;;14.65;59.98;100387.97;4463304;32;20150;-96
2022/11/02 06:50:54;;;;;;;25.37;11.32;;;;;;;14.64;59.98;100397.59;4460865;32;20134;-96
2022/11/02 06:53:20;;;;;;;25.37;11.82;;;;;;;14.66;59.98;100387.91;4461584;32;20116;-95
2022/11/02 06:55:50;;;;;;;21.15;12.35;;;;;;;14.83;59.99;100392.50;4461219;32;20487;-96
2022/11/02 06:58:16;;;;;;;26.77;12.57;;;;;;;14.81;59.99;100380.38;4461051;32;20160;-95
2022/11/02 07:00:41;;;;;;;24.65;12.52;;;;;;;14.90;59.99;100370.34;4460792;32;21388;-95
2022/11/02 07:03:08;;;;;;;28.95;13.05;;;;;;;14.96;60.00;100378.00;4459833;32;20139;-95
2022/11/02 07:05:34;;;;;;;26.50;13.43;;;;;;;15.09;60.00;100372.25;4461431;32;20176;-96
2022/11/02 07:07:59;;;;;;;33.97;15.70;;;;;;;15.32;60.01;100372.16;4461148;32;20104;-94
2022/11/02 07:10:25;;;;;;;31.27;13.48;;;;;;;15.39;60.01;100373.63;4460142;32;20526;-95
2022/11/02 07:12:52;;;;;;;27.65;13.10;;;;;;;15.24;60.01;100371.63;4460649;32;20153;-96
2022/11/02 07:15:18;;;;;;;23.77;12.50;;;;;;;15.34;60.02;100375.56;4460398;32;20088;-96
2022/11/02 07:17:44;;;;;;;28.17;13.85;;;;;;;15.39;60.01;100372.78;4460753;32;20130;-95
2022/11/02 07:20:09;;;;;;;26.67;13.73;;;;;;;15.26;60.01;100372.41;4460284;32;20136;-95
2022/11/02 07:22:35;;;;;;;27.62;13.25;;;;;;;15.28;60.01;100371.44;4460351;32;20088;-95
2022/11/02 07:25:01;;;;;;;26.77;14.18;;;;;;;15.31;60.03;100376.56;4473495;32;20095;-95
2022/11/02 07:27:26;;;;;;;28.02;13.88;;;;;;;15.50;60.03;100368.78;4459721;32;25963;-95
2022/11/02 07:29:51;;;;;;;23.87;12.55;;;;;;;15.51;60.02;100373.09;4459793;32;22592;-96
2022/11/02 07:32:17;;;;;;;24.50;11.88;;;;;;;15.84;60.04;100381.31;4460109;32;20832;-95
2022/11/02 07:34:42;;;;;;;24.87;12.75;;;;;;;15.90;60.04;100380.22;4459919;32;20789;-95
2022/11/02 07:37:07;;;;;;;30.23;13.07;;;;;;;15.80;60.04;100378.91;4473252;32;20127;-95
2022/11/02 07:39:33;;;;;;;28.70;13.27;;;;;;;15.82;60.04;100380.53;4459625;32;26150;-96
2022/11/02 07:41:58;;;;;;;27.20;13.85;;;;;;;15.77;60.03;100377.25;4459848;32;26042;-94
2022/11/02 07:44:24;;;;;;;23.23;11.77;;;;;;;15.81;60.04;100386.69;4460132;32;20150;-96
2022/11/02 07:46:49;;;;;;;24.23;13.00;;;;;;;15.86;60.04;100386.53;4459540;32;32062;-96
2022/11/02 07:49:14;;;;;;;26.08;13.07;;;;;;;15.93;60.04;100387.97;4459941;32;20179;-95
2022/11/02 07:51:40;;;;;;;25.70;12.52;;;;;;;15.88;60.05;100390.78;4459998;32;20120;-95
2022/11/02 07:54:05;;;;;;;26.17;12.98;;;;;;;16.03;60.05;100393.66;4460108;32;20152;-95
2022/11/02 07:56:31;;;;;;;26.58;13.43;;;;;;;16.00;60.05;100393.78;4459975;32;20116;-95
2022/11/02 07:58:57;;;;;;;28.95;12.93;;;;;;;15.89;60.05;100381.12;4473264;32;20148;-94
2022/11/02 08:01:22;;;;;;;28.67;14.35;;;;;;;15.93;60.04;100385.34;4459393;32;31080;-95
2022/11/02 08:03:48;;;;;;;25.12;13.82;;;;;;;15.88;60.05;100384.69;4459664;32;20199;-95
2022/11/02 08:06:13;;;;;;;27.87;13.50;;;;;;;16.14;60.06;100381.75;4459866;32;20100;-95
2022/11/02 08:08:39;;;;;;;26.02;12.88;;;;;;;16.06;60.05;100383.00;4460581;32;25170;-95
2022/11/02 08:11:05;;;;;;;25.65;13.70;;;;;;;16.01;60.06;100383.22;4464243;32;20522;-94
2022/11/02 08:13:31;;;;;;;27.80;14.35;;;;;;;16.19;60.07;100384.16;4474134;32;20215;-95
2022/11/02 08:15:56;;;;;;;29.00;13.25;;;;;;;16.17;60.06;100383.37;4461784;32;20136;-95
2022/11/02 08:18:23;;;;;;;24.83;13.40;;;;;;;16.10;60.06;100380.19;4488069;32;20104;-96
2022/11/02 08:20:48;;;;;;;29.25;14.43;;;;;;;16.15;60.06;100379.97;4462005;32;20092;-96
2022/11/02 08:23:15;;;;;;;25.40;14.20;;;;;;;16.19;60.06;100378.91;4474979;32;20124;-95
2022/11/02 08:25:40;;;;;;;24.17;12.70;;;;;;;16.14;60.06;100378.28;4461794;32;20789;-96
2022/11/02 08:28:06;;;;;;;26.35;14.20;;;;;;;16.25;60.07;100376.00;4474862;32;20133;-95
2022/11/02 08:30:32;;;;;;;27.85;13.88;;;;;;;16.39;60.07;100375.41;4461709;32;20112;-95
2022/11/02 08:33:08;;;;;;;28.08;12.55;;;;;;;16.54;60.07;100379.91;4461345;32;27206;-96
2022/11/02 08:35:36;;;;;;;23.27;12.82;;;;;;;16.73;60.09;100378.16;4474929;32;20073;-95
2022/11/02 08:38:01;;;;;;;23.67;12.35;;;;;;;16.92;60.10;100374.66;4462276;32;20084;-96
2022/11/02 08:40:27;;;;;;;27.33;14.43;;;;;;;16.91;60.10;100378.22;4461811;32;20110;-96
2022/11/02 08:42:59;;;;;;;26.92;14.30;;;;;;;16.84;60.09;100377.69;4461097;32;23450;-95
2022/11/02 08:45:25;;;;;;;26.35;13.10;;;;;;;16.94;60.10;100372.81;4462049;32;20092;-95
2022/11/02 08:47:51;;;;;;;27.02;13.80;;;;;;;16.76;60.09;100375.41;4461816;32;20115;-95
2022/11/02 08:50:16;;;;;;;24.37;13.10;;;;;;;16.96;60.10;100369.19;4461338;32;20100;-96
2022/11/02 08:52:42;;;;;;;25.23;13.25;;;;;;;16.95;60.11;100369.25;4461007;32;29219;-96
2022/11/02 08:55:07;;;;;;;24.00;12.85;;;;;;;16.96;60.11;100371.81;4474203;32;24716;-95
2022/11/02 08:57:32;;;;;;;26.25;12.80;;;;;;;17.17;60.12;100368.12;4461480;32;20118;-96
2022/11/02 08:59:58;;;;;;;24.45;13.35;;;;;;;17.18;60.12;100361.09;4461375;32;20440;-95
2022/11/02 09:02:23;;;;;;;22.80;12.85;;;;;;;17.38;60.12;100360.97;4462372;32;21008;-95
2022/11/02 09:04:48;;;;;;;24.80;12.50;;;;;;;17.52;60.13;100359.44;4462852;32;20135;-96
2022/11/02 09:07:14;;;;;;;23.83;11.50;;;;;;;17.49;60.13;100363.88;4463054;32;20408;-96
2022/11/02 09:09:39;;;;;;;19.02;11.45;;;;;;;17.62;60.13;100356.22;4461395;32;20089;-96
2022/11/02 09:12:05;;;;;;;21.40;12.13;;;;;;;17.58;60.13;100354.69;4461704;32;20156;-96
2022/11/02 09:14:30;;;;;;;24.50;12.05;;;;;;;17.65;60.14;100358.69;4461763;32;20145;-96
2022/11/02 09:16:56;;;;;;;21.73;12.00;;;;;;;17.66;60.14;100359.56;4461252;32;21552;-95
2022/11/02 09:19:21;;;;;;;19.30;11.50;;;;;;;17.85;60.14;100356.84;4461188;32;25480;-96
2022/11/02 09:21:48;;;;;;;22.62;12.75;;;;;;;17.84;60.14;100358.63;4461319;32;20150;-96
2022/11/02 09:24:14;;;;;;;21.77;11.70;;;;;;;17.78;60.15;100362.44;4461530;32;20733;-96
2022/11/02 09:26:39;;;;;;;25.12;11.35;;;;;;;17.73;60.14;100356.53;4461442;32;20170;-95
2022/11/02 09:29:04;;;;;;;20.70;11.73;;;;;;;17.88;60.15;100354.06;4473872;32;20140;-96
2022/11/02 09:31:30;;;;;;;22.05;12.57;;;;;;;18.03;60.16;100353.25;4461261;32;24664;-96
2022/11/02 09:33:55;;;;;;;18.80;10.57;;;;;;;18.04;60.16;100349.69;4463142;32;20097;-96
2022/11/02 09:36:21;;;;;;;23.02;11.80;;;;;;;18.17;60.17;100347.25;4462039;32;20147;-96
2022/11/02 09:38:46;;;;;;;22.87;12.13;;;;;;;18.06;60.16;100350.47;4473896;32;20757;-96
2022/11/02 09:41:16;;;;;;;21.35;10.75;;;;;;;17.98;60.15;100350.88;4461252;32;20441;-96
2022/11/02 09:44:00;;;;;;;23.17;12.57;;;;;;;18.01;60.16;100352.50;4461602;32;20726;-95
2022/11/02 09:46:28;;;;;;;22.13;11.52;;;;;;;17.91;60.15;100349.47;4462871;32;20486;-95
2022/11/02 09:48:58;;;;;;;20.33;10.95;;;;;;;18.03;60.16;100354.09;4461678;32;20507;-96
2022/11/02 09:51:45;;;;;;;21.95;11.05;;;;;;;18.01;60.16;100350.72;4461785;32;20462;-96
2022/11/02 09:54:24;;;;;;;23.90;12.20;;;;;;;18.28;60.17;100351.00;4474459;32;20125;-96
2022/11/02 09:56:50;;;;;;;18.40;10.85;;;;;;;18.42;60.18;100343.19;4462013;32;20133;-96
2022/11/02 09:59:17;;;;;;;25.15;12.70;;;;;;;18.24;60.18;100341.56;4461009;32;20119;-95
2022/11/02 10:01:57;;;;;;;21.50;11.90;;;;;;;18.39;60.18;100343.34;4461516;32;20112;-95
2022/11/02 10:04:28;;;;;;;23.73;12.23;;;;;;;18.26;60.18;100344.97;4487411;32;20155;-96
2022/11/02 10:07:32;;;;;;;23.48;11.82;;;;;;;18.13;60.16;100343.06;4488054;32;20196;-95
2022/11/02 10:10:16;;;;;;;22.87;11.65;;;;;;;17.90;60.15;100342.50;4469364;32;20065;-96
2022/11/02 10:12:49;;;;;;;22.35;11.95;;;;;;;17.98;60.16;100342.97;4475595;32;20170;-96
2022/11/02 10:15:18;;;;;;;24.08;13.88;;;;;;;18.01;60.16;100337.53;4487374;32;20129;-96
2022/11/02 10:17:44;;;;;;;24.58;12.75;;;;;;;18.12;60.17;100341.38;4474017;32;20096;-95
2022/11/02 10:20:19;;;;;;;22.42;11.40;;;;;;;18.18;60.17;100341.03;4460915;32;20466;-94
2022/11/02 10:22:44;;;;;;;23.10;11.38;;;;;;;18.24;60.17;100335.44;4461681;32;20077;-96
2022/11/02 10:25:12;;;;;;;25.17;11.82;;;;;;;18.33;60.18;100340.22;4474128;32;20109;-96
2022/11/02 10:27:37;;;;;;;24.60;11.38;;;;;;;18.41;60.18;100330.09;4474742;32;20144;-96
2022/11/02 10:30:17;;;;;;;24.20;13.48;;;;;;;18.54;60.18;100336.41;4461249;32;20084;-95
2022/11/02 10:32:44;;;;;;;25.30;12.83;;;;;;;18.58;60.19;100334.44;4463635;32;20112;-96
2022/11/02 10:35:36;;;;;;;20.10;12.37;;;;;;;18.80;60.20;100331.47;4462178;32;20730;-96
2022/11/02 10:38:25;;;;;;;21.55;12.63;;;;;;;18.70;60.20;100336.44;4463077;32;20100;-96
2022/11/02 10:41:10;;;;;;;22.33;12.75;;;;;;;18.85;60.21;100342.63;4476924;32;20104;-96
2022/11/02 10:43:42;;;;;;;22.50;11.65;;;;;;;18.91;60.20;100340.47;4487607;32;20159;-96
2022/11/02 10:46:23;;;;;;;19.92;11.25;;;;;;;18.96;60.21;100333.16;4487385;32;20503;-95
2022/11/02 10:49:08;;;;;;;17.92;10.45;;;;;;;19.01;60.21;100330.25;4488440;32;20741;-96
2022/11/02 10:51:33;;;;;;;20.42;11.27;;;;;;;19.02;60.22;100337.22;4461891;32;20092;-96
2022/11/02 10:53:59;;;;;;;25.70;12.75;;;;;;;19.18;60.22;100332.78;4474638;32;20099;-96
2022/11/02 10:56:31;;;;;;;17.70;9.82;;;;;;;19.30;60.22;100329.41;4474802;32;20105;-96
2022/11/02 10:59:13;;;;;;;17.80;10.90;;;;;;;19.53;60.24;100332.47;4463336;32;20131;-96
2022/11/02 11:01:43;;;;;;;22.40;11.20;;;;;;;19.55;60.24;100335.91;4488090;32;20072;-96
2022/11/02 11:04:21;;;;;;;19.62;11.68;;;;;;;19.77;60.25;100327.53;4463135;32;20156;-96
2022/11/02 11:06:47;;;;;;;23.08;11.30;;;;;;;19.80;60.26;100322.06;4461337;32;20104;-96
2022/11/02 11:09:23;;;;;;;20.95;11.52;;;;;;;19.90;60.26;100332.00;4462021;32;20119;-96
2022/11/02 11:11:59;;;;;;;17.52;10.68;;;;;;;20.06;60.26;100328.37;4463236;32;20100;-96
2022/11/02 11:14:28;;;;;;;21.95;11.50;;;;;;;20.01;60.27;100331.31;4463167;32;20126;-96
2022/11/02 11:16:54;;;;;;;18.83;10.27;;;;;;;20.01;60.27;100333.97;4463542;32;20109;-96
2022/11/02 11:19:33;;;;;;;16.62;9.63;;;;;;;20.15;60.27;100328.69;4476110;32;20092;-96
2022/11/02 11:22:00;;;;;;;22.87;10.18;;;;;;;20.17;60.28;100336.50;4463648;32;20080;-96
2022/11/02 11:24:33;;;;;;;21.00;11.75;;;;;;;20.19;60.27;100330.19;4489048;31;20159;-96
2022/11/02 11:26:59;;;;;;;20.62;10.93;;;;;;;20.37;60.28;100325.53;4474926;32;20121;-96
2022/11/02 11:29:25;;;;;;;19.67;10.98;;;;;;;20.29;60.28;100333.09;4475922;32;20111;-96